sensor_id;sensor_type;location;lat;lon;timestamp;pressure;altitude;pressure_sealevel;temperature;humidity
68807;BME280;55800;54.272;18.558;2023-02-21T00:00:21;99300.84;;;7.34;66.46
68807;BME280;55800;54.272;18.558;2023-02-21T00:03:23;99303.56;;;7.33;66.17
68807;BME280;55800;54.272;18.558;2023-02-21T00:06:10;99302.56;;;7.35;66.19
68807;BME280;55800;54.272;18.558;2023-02-21T00:08:56;99303.34;;;7.37;66.30
68807;BME280;55800;54.272;18.558;2023-02-21T00:11:43;99311.31;;;7.37;66.32
68807;BME280;55800;54.272;18.558;2023-02-21T00:14:30;99318.53;;;7.35;66.79
68807;BME280;55800;54.272;18.558;2023-02-21T00:17:17;99318.53;;;7.35;66.25
68807;BME280;55800;54.272;18.558;2023-02-21T00:20:05;99316.94;;;7.31;65.90
68807;BME280;55800;54.272;18.558;2023-02-21T00:22:52;99305.53;;;7.29;66.01
68807;BME280;55800;54.272;18.558;2023-02-21T00:25:39;99304.59;;;7.30;65.95
68807;BME280;55800;54.272;18.558;2023-02-21T00:28:26;99350.56;;;7.32;65.88
68807;BME280;55800;54.272;18.558;2023-02-21T00:31:12;99326.72;;;7.31;66.25
68807;BME280;55800;54.272;18.558;2023-02-21T00:34:03;99331.91;;;7.34;66.18
68807;BME280;55800;54.272;18.558;2023-02-21T00:36:51;99331.09;;;7.32;66.28
68807;BME280;55800;54.272;18.558;2023-02-21T00:39:39;99332.72;;;7.34;66.43
68807;BME280;55800;54.272;18.558;2023-02-21T00:42:25;99322.09;;;7.34;66.40
68807;BME280;55800;54.272;18.558;2023-02-21T00:45:12;99317.75;;;7.33;66.25
68807;BME280;55800;54.272;18.558;2023-02-21T00:47:59;99323.97;;;7.32;66.28
68807;BME280;55800;54.272;18.558;2023-02-21T00:50:46;99309.91;;;7.30;66.16
68807;BME280;55800;54.272;18.558;2023-02-21T00:53:34;99316.31;;;7.26;66.40
68807;BME280;55800;54.272;18.558;2023-02-21T00:56:21;99324.28;;;7.26;66.57
68807;BME280;55800;54.272;18.558;2023-02-21T00:59:07;99318.03;;;7.27;66.47
68807;BME280;55800;54.272;18.558;2023-02-21T01:01:54;99303.97;;;7.25;66.30
68807;BME280;55800;54.272;18.558;2023-02-21T01:04:41;99309.41;;;7.22;66.53
68807;BME280;55800;54.272;18.558;2023-02-21T01:07:31;99317.53;;;7.19;66.53
68807;BME280;55800;54.272;18.558;2023-02-21T01:10:19;99321.94;;;7.20;66.64
68807;BME280;55800;54.272;18.558;2023-02-21T01:13:06;99315.91;;;7.17;66.54
68807;BME280;55800;54.272;18.558;2023-02-21T01:15:52;99315.97;;;7.15;66.88
68807;BME280;55800;54.272;18.558;2023-02-21T01:18:40;99314.88;;;7.19;66.76
68807;BME280;55800;54.272;18.558;2023-02-21T01:21:27;99302.66;;;7.15;66.75
68807;BME280;55800;54.272;18.558;2023-02-21T01:24:15;99306.19;;;7.16;66.77
68807;BME280;55800;54.272;18.558;2023-02-21T01:27:02;99309.06;;;7.11;66.58
68807;BME280;55800;54.272;18.558;2023-02-21T01:29:49;99309.25;;;7.08;66.38
68807;BME280;55800;54.272;18.558;2023-02-21T01:32:37;99323.44;;;7.07;66.44
68807;BME280;55800;54.272;18.558;2023-02-21T01:35:24;99288.03;;;7.06;66.36
68807;BME280;55800;54.272;18.558;2023-02-21T01:38:11;99311.25;;;7.03;66.67
68807;BME280;55800;54.272;18.558;2023-02-21T01:40:59;99286.25;;;7.07;66.58
68807;BME280;55800;54.272;18.558;2023-02-21T01:43:59;99289.84;;;7.06;66.63
68807;BME280;55800;54.272;18.558;2023-02-21T01:46:47;99299.63;;;7.05;66.41
68807;BME280;55800;54.272;18.558;2023-02-21T01:49:35;99289.06;;;7.04;66.29
68807;BME280;55800;54.272;18.558;2023-02-21T01:52:24;99291.88;;;7.01;66.55
68807;BME280;55800;54.272;18.558;2023-02-21T01:55:11;99281.38;;;6.98;66.26
68807;BME280;55800;54.272;18.558;2023-02-21T01:57:59;99286.69;;;6.98;66.12
68807;BME280;55800;54.272;18.558;2023-02-21T02:00:47;99273.47;;;6.96;66.09
68807;BME280;55800;54.272;18.558;2023-02-21T02:03:33;99282.53;;;6.92;66.14
68807;BME280;55800;54.272;18.558;2023-02-21T02:06:20;99297.78;;;6.89;66.56
68807;BME280;55800;54.272;18.558;2023-02-21T02:09:15;99303.78;;;6.92;66.49
68807;BME280;55800;54.272;18.558;2023-02-21T02:12:15;99305.50;;;6.93;66.40
68807;BME280;55800;54.272;18.558;2023-02-21T02:15:21;99278.00;;;6.94;66.39
68807;BME280;55800;54.272;18.558;2023-02-21T02:18:11;99282.47;;;6.94;66.46
68807;BME280;55800;54.272;18.558;2023-02-21T02:21:06;99281.66;;;6.92;66.64
68807;BME280;55800;54.272;18.558;2023-02-21T02:24:05;99282.69;;;6.89;66.93
68807;BME280;55800;54.272;18.558;2023-02-21T02:27:15;99283.41;;;6.93;66.46
68807;BME280;55800;54.272;18.558;2023-02-21T02:36:14;99293.38;;;6.88;66.56
68807;BME280;55800;54.272;18.558;2023-02-21T02:38:52;99285.41;;;6.88;66.75
68807;BME280;55800;54.272;18.558;2023-02-21T02:41:31;99294.94;;;6.92;66.82
68807;BME280;55800;54.272;18.558;2023-02-21T02:44:12;99285.19;;;6.92;66.40
68807;BME280;55800;54.272;18.558;2023-02-21T02:46:44;99278.22;;;6.90;66.27
68807;BME280;55800;54.272;18.558;2023-02-21T02:49:16;99274.66;;;6.91;65.89
68807;BME280;55800;54.272;18.558;2023-02-21T02:51:49;99286.97;;;6.92;66.14
68807;BME280;55800;54.272;18.558;2023-02-21T02:54:22;99280.09;;;6.88;65.75
68807;BME280;55800;54.272;18.558;2023-02-21T02:56:52;99279.22;;;6.87;66.05
68807;BME280;55800;54.272;18.558;2023-02-21T02:59:22;99285.41;;;6.88;66.19
68807;BME280;55800;54.272;18.558;2023-02-21T03:08:03;99283.72;;;6.87;66.11
68807;BME280;55800;54.272;18.558;2023-02-21T03:10:42;99281.97;;;6.86;66.18
68807;BME280;55800;54.272;18.558;2023-02-21T03:13:19;99286.28;;;6.88;66.21
68807;BME280;55800;54.272;18.558;2023-02-21T03:15:54;99307.63;;;6.87;66.27
68807;BME280;55800;54.272;18.558;2023-02-21T03:18:28;99297.91;;;6.86;66.35
68807;BME280;55800;54.272;18.558;2023-02-21T03:21:03;99325.25;;;6.88;66.24
68807;BME280;55800;54.272;18.558;2023-02-21T03:23:36;99319.16;;;6.86;66.25
68807;BME280;55800;54.272;18.558;2023-02-21T03:26:09;99322.59;;;6.88;66.15
68807;BME280;55800;54.272;18.558;2023-02-21T03:28:44;99321.72;;;6.87;66.12
68807;BME280;55800;54.272;18.558;2023-02-21T03:31:25;99330.75;;;6.85;66.17
68807;BME280;55800;54.272;18.558;2023-02-21T03:33:57;99330.66;;;6.86;65.94
68807;BME280;55800;54.272;18.558;2023-02-21T03:36:28;99356.34;;;6.86;65.77
68807;BME280;55800;54.272;18.558;2023-02-21T03:38:59;99349.16;;;6.88;65.74
68807;BME280;55800;54.272;18.558;2023-02-21T03:41:28;99348.31;;;6.87;65.54
68807;BME280;55800;54.272;18.558;2023-02-21T03:43:58;99350.03;;;6.88;65.59
68807;BME280;55800;54.272;18.558;2023-02-21T03:46:27;99357.06;;;6.89;65.12
68807;BME280;55800;54.272;18.558;2023-02-21T03:48:57;99344.72;;;6.88;65.29
68807;BME280;55800;54.272;18.558;2023-02-21T03:51:29;99352.78;;;6.87;65.16
68807;BME280;55800;54.272;18.558;2023-02-21T03:54:00;99367.75;;;6.88;64.99
68807;BME280;55800;54.272;18.558;2023-02-21T03:56:37;99361.53;;;6.89;64.98
68807;BME280;55800;54.272;18.558;2023-02-21T03:59:19;99366.84;;;6.89;64.69
68807;BME280;55800;54.272;18.558;2023-02-21T04:01:48;99371.22;;;6.90;64.74
68807;BME280;55800;54.272;18.558;2023-02-21T04:04:19;99362.44;;;6.88;64.85
68807;BME280;55800;54.272;18.558;2023-02-21T04:06:56;99373.00;;;6.89;64.90
68807;BME280;55800;54.272;18.558;2023-02-21T04:09:28;99370.28;;;6.91;65.00
68807;BME280;55800;54.272;18.558;2023-02-21T04:11:58;99355.13;;;6.93;65.15
68807;BME280;55800;54.272;18.558;2023-02-21T04:14:27;99373.75;;;6.93;65.08
68807;BME280;55800;54.272;18.558;2023-02-21T04:16:57;99365.59;;;6.96;65.31
68807;BME280;55800;54.272;18.558;2023-02-21T04:19:26;99354.97;;;6.96;65.61
68807;BME280;55800;54.272;18.558;2023-02-21T04:21:56;99353.19;;;6.96;65.27
68807;BME280;55800;54.272;18.558;2023-02-21T04:24:27;99353.28;;;6.95;65.61
68807;BME280;55800;54.272;18.558;2023-02-21T04:26:57;99379.69;;;6.98;65.69
68807;BME280;55800;54.272;18.558;2023-02-21T04:29:28;99379.75;;;6.96;65.75
68807;BME280;55800;54.272;18.558;2023-02-21T04:31:57;99369.13;;;6.96;65.76
68807;BME280;55800;54.272;18.558;2023-02-21T04:34:27;99376.19;;;6.97;65.70
68807;BME280;55800;54.272;18.558;2023-02-21T04:36:57;99385.00;;;6.98;65.95
68807;BME280;55800;54.272;18.558;2023-02-21T04:39:28;99378.75;;;6.99;65.98
68807;BME280;55800;54.272;18.558;2023-02-21T04:41:58;99379.53;;;7.01;66.15
68807;BME280;55800;54.272;18.558;2023-02-21T04:44:29;99369.78;;;7.01;65.77
68807;BME280;55800;54.272;18.558;2023-02-21T04:46:58;99382.34;;;6.98;66.08
68807;BME280;55800;54.272;18.558;2023-02-21T04:49:27;99377.69;;;7.03;65.76
68807;BME280;55800;54.272;18.558;2023-02-21T04:51:57;99376.88;;;7.01;65.90
68807;BME280;55800;54.272;18.558;2023-02-21T04:54:27;99378.75;;;6.99;65.99
68807;BME280;55800;54.272;18.558;2023-02-21T04:56:57;99390.03;;;7.04;65.94
68807;BME280;55800;54.272;18.558;2023-02-21T04:59:26;99375.94;;;7.02;65.70
68807;BME280;55800;54.272;18.558;2023-02-21T05:01:56;99381.25;;;7.02;65.56
68807;BME280;55800;54.272;18.558;2023-02-21T05:04:29;99402.50;;;7.02;65.76
68807;BME280;55800;54.272;18.558;2023-02-21T05:06:59;99387.53;;;7.01;65.83
68807;BME280;55800;54.272;18.558;2023-02-21T05:09:29;99397.44;;;6.97;65.67
68807;BME280;55800;54.272;18.558;2023-02-21T05:12:00;99396.41;;;7.00;65.62
68807;BME280;55800;54.272;18.558;2023-02-21T05:14:29;99404.31;;;7.01;65.49
68807;BME280;55800;54.272;18.558;2023-02-21T05:16:58;99428.28;;;7.00;65.53
68807;BME280;55800;54.272;18.558;2023-02-21T05:19:27;99389.50;;;6.96;65.77
68807;BME280;55800;54.272;18.558;2023-02-21T05:21:57;99409.13;;;6.93;65.75
68807;BME280;55800;54.272;18.558;2023-02-21T05:24:29;99427.88;;;6.90;65.98
68807;BME280;55800;54.272;18.558;2023-02-21T05:26:59;99426.00;;;6.92;66.22
68807;BME280;55800;54.272;18.558;2023-02-21T05:29:29;99415.38;;;6.92;65.94
68807;BME280;55800;54.272;18.558;2023-02-21T05:31:58;99438.41;;;6.92;65.88
68807;BME280;55800;54.272;18.558;2023-02-21T05:34:27;99433.03;;;6.93;66.32
68807;BME280;55800;54.272;18.558;2023-02-21T05:36:57;99434.84;;;6.93;66.48
68807;BME280;55800;54.272;18.558;2023-02-21T05:39:26;99449.84;;;6.94;66.83
68807;BME280;55800;54.272;18.558;2023-02-21T05:41:57;99451.41;;;6.98;66.54
68807;BME280;55800;54.272;18.558;2023-02-21T05:44:26;99462.03;;;6.98;66.49
68807;BME280;55800;54.272;18.558;2023-02-21T05:46:55;99439.22;;;6.94;66.54
68807;BME280;55800;54.272;18.558;2023-02-21T05:49:24;99470.28;;;6.92;66.48
68807;BME280;55800;54.272;18.558;2023-02-21T05:51:55;99452.84;;;6.86;66.65
68807;BME280;55800;54.272;18.558;2023-02-21T05:54:24;99444.81;;;6.88;66.84
68807;BME280;55800;54.272;18.558;2023-02-21T05:56:55;99450.13;;;6.88;66.50
68807;BME280;55800;54.272;18.558;2023-02-21T05:59:24;99464.97;;;6.92;66.62
68807;BME280;55800;54.272;18.558;2023-02-21T06:01:54;99462.31;;;6.92;66.33
68807;BME280;55800;54.272;18.558;2023-02-21T06:04:23;99485.44;;;6.90;66.23
68807;BME280;55800;54.272;18.558;2023-02-21T06:06:53;99483.56;;;6.92;66.46
68807;BME280;55800;54.272;18.558;2023-02-21T06:09:22;99486.41;;;6.89;66.40
68807;BME280;55800;54.272;18.558;2023-02-21T06:11:55;99483.56;;;6.92;66.41
68807;BME280;55800;54.272;18.558;2023-02-21T06:14:25;99488.19;;;6.88;66.62
68807;BME280;55800;54.272;18.558;2023-02-21T06:16:54;99487.19;;;6.91;66.59
68807;BME280;55800;54.272;18.558;2023-02-21T06:19:23;99514.47;;;6.94;66.69
68807;BME280;55800;54.272;18.558;2023-02-21T06:21:52;99525.97;;;6.95;66.51
68807;BME280;55800;54.272;18.558;2023-02-21T06:24:22;99510.94;;;6.94;66.57
68807;BME280;55800;54.272;18.558;2023-02-21T06:26:52;99515.34;;;6.95;66.64
68807;BME280;55800;54.272;18.558;2023-02-21T06:29:22;99519.72;;;6.96;66.38
68807;BME280;55800;54.272;18.558;2023-02-21T06:31:56;99524.09;;;6.97;66.67
68807;BME280;55800;54.272;18.558;2023-02-21T06:34:25;99533.84;;;6.96;66.70
68807;BME280;55800;54.272;18.558;2023-02-21T06:36:55;99543.69;;;6.94;66.72
68807;BME280;55800;54.272;18.558;2023-02-21T06:39:24;99528.63;;;6.95;66.86
68807;BME280;55800;54.272;18.558;2023-02-21T06:41:54;99536.50;;;6.96;67.00
68807;BME280;55800;54.272;18.558;2023-02-21T06:44:24;99540.84;;;6.99;66.86
68807;BME280;55800;54.272;18.558;2023-02-21T06:46:54;99545.19;;;7.00;66.74
68807;BME280;55800;54.272;18.558;2023-02-21T06:49:23;99554.03;;;7.00;66.66
68807;BME280;55800;54.272;18.558;2023-02-21T06:51:52;99552.25;;;7.01;66.71
68807;BME280;55800;54.272;18.558;2023-02-21T06:54:21;99549.53;;;7.02;66.55
68807;BME280;55800;54.272;18.558;2023-02-21T06:56:52;99559.28;;;7.02;66.76
68807;BME280;55800;54.272;18.558;2023-02-21T06:59:21;99568.09;;;7.04;66.78
68807;BME280;55800;54.272;18.558;2023-02-21T07:01:52;99567.13;;;7.05;66.82
68807;BME280;55800;54.272;18.558;2023-02-21T07:04:22;99575.91;;;7.07;66.58
68807;BME280;55800;54.272;18.558;2023-02-21T07:06:52;99581.09;;;7.10;66.78
68807;BME280;55800;54.272;18.558;2023-02-21T07:09:21;99586.44;;;7.08;66.67
68807;BME280;55800;54.272;18.558;2023-02-21T07:11:50;99593.59;;;7.08;66.70
68807;BME280;55800;54.272;18.558;2023-02-21T07:14:20;99590.94;;;7.08;66.75
68807;BME280;55800;54.272;18.558;2023-02-21T07:16:50;99613.03;;;7.08;66.75
68807;BME280;55800;54.272;18.558;2023-02-21T07:19:20;99605.00;;;7.10;66.81
68807;BME280;55800;54.272;18.558;2023-02-21T07:21:49;99606.66;;;7.13;66.97
68807;BME280;55800;54.272;18.558;2023-02-21T07:24:18;99616.28;;;7.15;66.82
68807;BME280;55800;54.272;18.558;2023-02-21T07:26:48;99614.63;;;7.13;66.78
68807;BME280;55800;54.272;18.558;2023-02-21T07:29:19;99626.13;;;7.13;66.89
68807;BME280;55800;54.272;18.558;2023-02-21T07:31:48;99621.69;;;7.14;66.97
68807;BME280;55800;54.272;18.558;2023-02-21T07:34:19;99629.56;;;7.15;67.00
68807;BME280;55800;54.272;18.558;2023-02-21T07:36:50;99632.22;;;7.15;67.22
68807;BME280;55800;54.272;18.558;2023-02-21T07:39:19;99639.22;;;7.18;66.89
68807;BME280;55800;54.272;18.558;2023-02-21T07:41:48;99642.66;;;7.20;67.13
68807;BME280;55800;54.272;18.558;2023-02-21T07:44:23;99662.16;;;7.20;66.93
68807;BME280;55800;54.272;18.558;2023-02-21T07:46:54;99654.03;;;7.23;66.97
68807;BME280;55800;54.272;18.558;2023-02-21T07:49:24;99662.81;;;7.25;66.92
68807;BME280;55800;54.272;18.558;2023-02-21T07:51:54;99651.25;;;7.26;66.76
68807;BME280;55800;54.272;18.558;2023-02-21T07:54:23;99669.84;;;7.26;66.78
68807;BME280;55800;54.272;18.558;2023-02-21T07:56:53;99656.47;;;7.28;66.92
68807;BME280;55800;54.272;18.558;2023-02-21T07:59:22;99660.81;;;7.30;66.74
68807;BME280;55800;54.272;18.558;2023-02-21T08:01:52;99671.31;;;7.33;66.68
68807;BME280;55800;54.272;18.558;2023-02-21T08:04:23;99670.44;;;7.33;66.89
68807;BME280;55800;54.272;18.558;2023-02-21T08:06:58;99676.63;;;7.33;66.72
68807;BME280;55800;54.272;18.558;2023-02-21T08:09:28;99665.00;;;7.36;66.91
68807;BME280;55800;54.272;18.558;2023-02-21T08:11:57;99669.19;;;7.41;66.70
68807;BME280;55800;54.272;18.558;2023-02-21T08:14:28;99666.44;;;7.43;66.42
68807;BME280;55800;54.272;18.558;2023-02-21T08:16:57;99678.94;;;7.41;66.44
68807;BME280;55800;54.272;18.558;2023-02-21T08:19:28;99685.13;;;7.41;66.63
68807;BME280;55800;54.272;18.558;2023-02-21T08:21:58;99678.06;;;7.40;66.64
68807;BME280;55800;54.272;18.558;2023-02-21T08:24:27;99686.72;;;7.45;66.56
68807;BME280;55800;54.272;18.558;2023-02-21T08:26:56;99689.31;;;7.47;66.51
68807;BME280;55800;54.272;18.558;2023-02-21T08:29:26;99697.84;;;7.55;66.60
68807;BME280;55800;54.272;18.558;2023-02-21T08:31:56;99702.22;;;7.56;66.68
68807;BME280;55800;54.272;18.558;2023-02-21T08:34:26;99698.47;;;7.60;66.32
68807;BME280;55800;54.272;18.558;2023-02-21T08:36:57;99714.38;;;7.61;66.31
68807;BME280;55800;54.272;18.558;2023-02-21T08:39:26;99717.03;;;7.61;66.25
68807;BME280;55800;54.272;18.558;2023-02-21T08:41:57;99727.75;;;7.60;66.46
68807;BME280;55800;54.272;18.558;2023-02-21T08:44:26;99727.63;;;7.63;66.44
68807;BME280;55800;54.272;18.558;2023-02-21T08:46:55;99736.25;;;7.68;66.62
68807;BME280;55800;54.272;18.558;2023-02-21T08:49:26;99728.06;;;7.72;66.24
68807;BME280;55800;54.272;18.558;2023-02-21T08:51:56;99740.44;;;7.73;66.34
68807;BME280;55800;54.272;18.558;2023-02-21T08:54:25;99747.34;;;7.77;66.47
68807;BME280;55800;54.272;18.558;2023-02-21T08:56:55;99741.03;;;7.80;66.35
68807;BME280;55800;54.272;18.558;2023-02-21T08:59:25;99740.97;;;7.81;66.22
68807;BME280;55800;54.272;18.558;2023-02-21T09:01:57;99752.53;;;7.80;66.08
68807;BME280;55800;54.272;18.558;2023-02-21T09:04:28;99749.75;;;7.83;65.98
68807;BME280;55800;54.272;18.558;2023-02-21T09:06:58;99751.69;;;7.80;66.14
68807;BME280;55800;54.272;18.558;2023-02-21T09:09:27;99754.28;;;7.81;66.21
68807;BME280;55800;54.272;18.558;2023-02-21T09:11:57;99761.47;;;7.79;66.19
68807;BME280;55800;54.272;18.558;2023-02-21T09:14:27;99765.91;;;7.79;66.11
68807;BME280;55800;54.272;18.558;2023-02-21T09:16:56;99770.34;;;7.78;66.11
68807;BME280;55800;54.272;18.558;2023-02-21T09:19:25;99778.34;;;7.78;66.00
68807;BME280;55800;54.272;18.558;2023-02-21T09:21:57;99784.59;;;7.77;66.07
68807;BME280;55800;54.272;18.558;2023-02-21T09:24:28;99777.41;;;7.79;66.38
68807;BME280;55800;54.272;18.558;2023-02-21T09:26:58;99781.88;;;7.79;66.05
68807;BME280;55800;54.272;18.558;2023-02-21T09:29:30;99788.97;;;7.78;65.98
68807;BME280;55800;54.272;18.558;2023-02-21T09:32:13;99800.41;;;7.80;66.02
68807;BME280;55800;54.272;18.558;2023-02-21T09:34:43;99804.91;;;7.80;65.66
68807;BME280;55800;54.272;18.558;2023-02-21T09:37:16;99798.72;;;7.79;65.99
68807;BME280;55800;54.272;18.558;2023-02-21T09:39:45;99793.38;;;7.79;66.12
68807;BME280;55800;54.272;18.558;2023-02-21T09:42:17;99805.63;;;7.83;66.28
68807;BME280;55800;54.272;18.558;2023-02-21T09:44:47;99802.88;;;7.85;65.95
68807;BME280;55800;54.272;18.558;2023-02-21T09:47:22;99821.47;;;7.86;66.02
68807;BME280;55800;54.272;18.558;2023-02-21T09:49:58;99820.59;;;7.86;65.91
68807;BME280;55800;54.272;18.558;2023-02-21T09:52:34;99825.03;;;7.85;65.76
68807;BME280;55800;54.272;18.558;2023-02-21T09:55:08;99832.94;;;7.87;66.06
68807;BME280;55800;54.272;18.558;2023-02-21T09:57:44;99842.75;;;7.86;65.69
68807;BME280;55800;54.272;18.558;2023-02-21T10:00:18;99856.25;;;7.82;65.84
68807;BME280;55800;54.272;18.558;2023-02-21T10:02:56;99845.53;;;7.83;65.97
68807;BME280;55800;54.272;18.558;2023-02-21T10:05:37;99846.41;;;7.84;66.19
68807;BME280;55800;54.272;18.558;2023-02-21T10:08:17;99847.84;;;7.91;66.00
68807;BME280;55800;54.272;18.558;2023-02-21T10:10:47;99860.16;;;7.94;65.98
68807;BME280;55800;54.272;18.558;2023-02-21T10:13:27;99869.09;;;7.93;66.20
68807;BME280;55800;54.272;18.558;2023-02-21T10:16:02;99871.81;;;7.91;66.20
68807;BME280;55800;54.272;18.558;2023-02-21T10:18:37;99872.69;;;7.92;66.49
68807;BME280;55800;54.272;18.558;2023-02-21T10:21:13;99874.28;;;7.96;66.01
68807;BME280;55800;54.272;18.558;2023-02-21T10:23:49;99873.44;;;7.95;66.17
68807;BME280;55800;54.272;18.558;2023-02-21T10:26:22;99884.06;;;7.95;66.17
68807;BME280;55800;54.272;18.558;2023-02-21T10:28:53;99889.31;;;7.97;65.72
68807;BME280;55800;54.272;18.558;2023-02-21T10:31:30;99892.88;;;7.97;66.07
68807;BME280;55800;54.272;18.558;2023-02-21T10:34:02;99897.31;;;7.97;66.20
68807;BME280;55800;54.272;18.558;2023-02-21T10:36:35;99903.56;;;7.96;66.06
68807;BME280;55800;54.272;18.558;2023-02-21T10:39:13;99891.00;;;7.99;65.96
68807;BME280;55800;54.272;18.558;2023-02-21T10:41:44;99905.94;;;8.02;65.68
68807;BME280;55800;54.272;18.558;2023-02-21T10:44:19;99908.59;;;8.02;66.09
68807;BME280;55800;54.272;18.558;2023-02-21T10:46:54;99906.03;;;8.00;65.82
68807;BME280;55800;54.272;18.558;2023-02-21T10:49:30;99907.81;;;8.00;65.93
68807;BME280;55800;54.272;18.558;2023-02-21T10:52:10;99911.28;;;8.02;65.81
68807;BME280;55800;54.272;18.558;2023-02-21T10:54:41;99911.22;;;8.03;65.69
68807;BME280;55800;54.272;18.558;2023-02-21T10:57:27;99912.13;;;8.02;66.00
68807;BME280;55800;54.272;18.558;2023-02-21T10:59:59;99917.34;;;8.05;66.01
68807;BME280;55800;54.272;18.558;2023-02-21T11:02:40;99917.19;;;8.08;65.94
68807;BME280;55800;54.272;18.558;2023-02-21T11:05:14;99922.47;;;8.10;65.71
68807;BME280;55800;54.272;18.558;2023-02-21T11:07:56;99932.00;;;8.15;65.99
68807;BME280;55800;54.272;18.558;2023-02-21T11:10:31;99935.53;;;8.16;65.72
68807;BME280;55800;54.272;18.558;2023-02-21T11:13:06;99935.38;;;8.19;65.78
68807;BME280;55800;54.272;18.558;2023-02-21T11:15:41;99935.25;;;8.22;65.64
68807;BME280;55800;54.272;18.558;2023-02-21T11:18:17;99942.31;;;8.23;65.42
68807;BME280;55800;54.272;18.558;2023-02-21T11:20:47;99933.38;;;8.24;65.29
68807;BME280;55800;54.272;18.558;2023-02-21T11:23:24;99948.50;;;8.23;64.89
68807;BME280;55800;54.272;18.558;2023-02-21T11:25:59;99955.69;;;8.21;65.09
68807;BME280;55800;54.272;18.558;2023-02-21T11:28:37;99946.03;;;8.19;65.19
68807;BME280;55800;54.272;18.558;2023-02-21T11:31:17;99943.16;;;8.23;64.87
68807;BME280;55800;54.272;18.558;2023-02-21T11:33:55;99957.19;;;8.28;64.90
68807;BME280;55800;54.272;18.558;2023-02-21T11:36:27;99954.47;;;8.30;65.07
68807;BME280;55800;54.272;18.558;2023-02-21T11:39:04;99959.84;;;8.28;64.70
68807;BME280;55800;54.272;18.558;2023-02-21T11:41:46;99978.50;;;8.28;65.01
68807;BME280;55800;54.272;18.558;2023-02-21T11:44:24;99974.22;;;8.24;64.45
68807;BME280;55800;54.272;18.558;2023-02-21T11:47:01;99975.06;;;8.25;64.43
68807;BME280;55800;54.272;18.558;2023-02-21T11:49:41;99961.75;;;8.25;64.81
68807;BME280;55800;54.272;18.558;2023-02-21T11:52:22;99975.03;;;8.26;65.05
68807;BME280;55800;54.272;18.558;2023-02-21T11:54:54;99978.50;;;8.28;65.09
68807;BME280;55800;54.272;18.558;2023-02-21T11:57:33;99985.53;;;8.29;65.08
68807;BME280;55800;54.272;18.558;2023-02-21T12:00:15;99989.94;;;8.30;65.19
68807;BME280;55800;54.272;18.558;2023-02-21T12:02:59;99981.88;;;8.32;65.23
68807;BME280;55800;54.272;18.558;2023-02-21T12:05:43;99995.09;;;8.35;65.25
68807;BME280;55800;54.272;18.558;2023-02-21T12:08:33;99999.47;;;8.36;64.94
68807;BME280;55800;54.272;18.558;2023-02-21T12:11:16;99999.19;;;8.42;65.18
68807;BME280;55800;54.272;18.558;2023-02-21T12:14:07;99994.91;;;8.39;64.45
68807;BME280;55800;54.272;18.558;2023-02-21T12:16:45;100005.59;;;8.38;64.92
68807;BME280;55800;54.272;18.558;2023-02-21T12:19:29;100005.59;;;8.38;64.92
68807;BME280;55800;54.272;18.558;2023-02-21T12:22:14;100009.84;;;8.42;64.98
68807;BME280;55800;54.272;18.558;2023-02-21T12:25:04;100016.00;;;8.44;65.36
68807;BME280;55800;54.272;18.558;2023-02-21T12:27:47;100024.56;;;8.50;64.57
68807;BME280;55800;54.272;18.558;2023-02-21T12:30:34;100028.13;;;8.51;65.11
68807;BME280;55800;54.272;18.558;2023-02-21T12:33:17;100015.47;;;8.56;64.99
68807;BME280;55800;54.272;18.558;2023-02-21T12:36:09;100028.66;;;8.59;64.92
68807;BME280;55800;54.272;18.558;2023-02-21T12:38:53;100032.94;;;8.63;64.49
68807;BME280;55800;54.272;18.558;2023-02-21T12:41:54;100018.66;;;8.64;64.01
68807;BME280;55800;54.272;18.558;2023-02-21T12:44:31;100025.59;;;8.68;64.57
68807;BME280;55800;54.272;18.558;2023-02-21T12:47:10;100024.72;;;8.68;64.34
68807;BME280;55800;54.272;18.558;2023-02-21T12:49:44;100040.47;;;8.74;64.56
68807;BME280;55800;54.272;18.558;2023-02-21T12:52:23;100035.97;;;8.74;64.33
68807;BME280;55800;54.272;18.558;2023-02-21T12:54:58;100032.31;;;8.77;64.37
68807;BME280;55800;54.272;18.558;2023-02-21T12:57:44;100031.22;;;8.82;64.52
68807;BME280;55800;54.272;18.558;2023-02-21T13:00:20;100041.72;;;8.85;64.32
68807;BME280;55800;54.272;18.558;2023-02-21T13:02:59;100040.72;;;8.88;64.45
68807;BME280;55800;54.272;18.558;2023-02-21T13:05:37;100037.97;;;8.89;64.18
68807;BME280;55800;54.272;18.558;2023-02-21T13:08:15;100042.59;;;8.86;63.35
68807;BME280;55800;54.272;18.558;2023-02-21T13:11:02;100043.38;;;8.88;64.00
68807;BME280;55800;54.272;18.558;2023-02-21T13:13:34;100044.25;;;8.88;63.57
68807;BME280;55800;54.272;18.558;2023-02-21T13:16:07;100056.00;;;8.84;63.31
68807;BME280;55800;54.272;18.558;2023-02-21T13:18:45;100060.72;;;8.78;63.44
68807;BME280;55800;54.272;18.558;2023-02-21T13:21:24;100051.94;;;8.76;63.89
68807;BME280;55800;54.272;18.558;2023-02-21T13:24:31;100051.97;;;8.74;63.34
68807;BME280;55800;54.272;18.558;2023-02-21T13:27:38;100059.03;;;8.75;63.36
68807;BME280;55800;54.272;18.558;2023-02-21T13:30:15;100061.03;;;8.70;63.31
68807;BME280;55800;54.272;18.558;2023-02-21T13:32:52;100069.81;;;8.72;63.19
68807;BME280;55800;54.272;18.558;2023-02-21T13:35:29;100076.16;;;8.70;63.33
68807;BME280;55800;54.272;18.558;2023-02-21T13:38:00;100075.31;;;8.69;63.29
68807;BME280;55800;54.272;18.558;2023-02-21T13:40:35;100087.56;;;8.73;63.61
68807;BME280;55800;54.272;18.558;2023-02-21T13:43:11;100099.94;;;8.74;63.39
68807;BME280;55800;54.272;18.558;2023-02-21T13:45:42;100089.28;;;8.74;63.25
68807;BME280;55800;54.272;18.558;2023-02-21T13:48:21;100092.91;;;8.73;62.80
68807;BME280;55800;54.272;18.558;2023-02-21T13:50:53;100092.63;;;8.79;62.61
68807;BME280;55800;54.272;18.558;2023-02-21T13:53:24;100093.22;;;8.86;63.39
68807;BME280;55800;54.272;18.558;2023-02-21T13:56:40;100109.84;;;8.92;62.69
68807;BME280;55800;54.272;18.558;2023-02-21T13:59:32;100106.81;;;9.00;62.20